East Rockland Key, Florida
Current Conditions -  °F | °C
As of 6:53 AM on Thursday 29 Jan 2015 (Local Time) from KNQX Reporting Station
Scattered Clouds Scattered Clouds  
Wind Chill: 60°   Ceiling: Unl
Heat Index: 60°   Visibility: 10mi
Dew Point: 54°   Wind: 13mph
Humidity: 80%   Direction: 30°NNE
Pressure: 30.2"   Gusts: NA
Location:  24.5796°N, 81.6849°W
Report Text: KNQX 291153Z 03011KT 10SM SCT050 16/12 A3020 RMK AO2 SLP226 T01560122 10161 20156 53011 $
Loading
Personal Weather Stations






























Interactive Weather Map New forecast layout! Learn more

10-Day Weather Forecast

Advertisements
Track Severe Weather on mobile